createdAt,value
2023-02-16T00:01:17.699Z,8.14
2023-02-16T00:03:44.510Z,8.13
2023-02-16T00:06:15.844Z,8.01
2023-02-16T00:08:51.721Z,7.81
2023-02-16T00:11:51.005Z,7.70
2023-02-16T00:14:19.026Z,7.77
2023-02-16T00:16:45.686Z,7.79
2023-02-16T00:19:27.461Z,7.84
2023-02-16T00:21:56.756Z,7.86
2023-02-16T00:24:24.510Z,7.85
2023-02-16T00:26:51.176Z,7.87
2023-02-16T00:29:23.484Z,7.97
2023-02-16T00:31:50.833Z,8.02
2023-02-16T00:34:31.456Z,8.05
2023-02-16T00:37:02.683Z,7.91
2023-02-16T00:39:30.203Z,7.86
2023-02-16T00:42:02.875Z,7.93
2023-02-16T00:44:51.706Z,7.93
2023-02-16T00:47:31.827Z,7.93
2023-02-16T00:49:58.722Z,7.94
2023-02-16T00:52:39.757Z,7.98
2023-02-16T00:55:12.805Z,7.98
2023-02-16T00:57:53.744Z,8.02
2023-02-16T01:00:30.023Z,8.07
2023-02-16T01:03:01.895Z,8.05
2023-02-16T01:05:29.017Z,7.95
2023-02-16T01:08:17.758Z,7.82
2023-02-16T01:11:03.262Z,7.78
2023-02-16T01:13:32.832Z,7.76
2023-02-16T01:15:59.604Z,7.78
2023-02-16T01:18:29.200Z,7.74
2023-02-16T01:20:55.868Z,7.72
2023-02-16T01:23:22.515Z,7.75
2023-02-16T01:25:49.247Z,7.76
2023-02-16T01:28:22.104Z,7.81
2023-02-16T01:30:49.472Z,7.76
2023-02-16T01:33:16.311Z,7.71
2023-02-16T01:35:43.753Z,7.70
2023-02-16T01:38:26.202Z,7.69
2023-02-16T01:41:05.904Z,7.72
2023-02-16T01:43:46.563Z,7.73
2023-02-16T01:46:33.184Z,7.72
2023-02-16T01:48:59.973Z,7.70
2023-02-16T01:51:34.316Z,7.65
2023-02-16T01:54:17.981Z,7.51
2023-02-16T01:57:05.099Z,7.40
2023-02-16T01:59:49.836Z,7.33
2023-02-16T02:02:25.918Z,7.34
2023-02-16T02:05:21.445Z,7.37
2023-02-16T02:08:06.452Z,7.44
2023-02-16T02:10:54.539Z,7.50
2023-02-16T02:13:41.687Z,7.57
2023-02-16T02:16:10.369Z,7.60
2023-02-16T02:18:37.497Z,7.62
2023-02-16T02:21:29.736Z,7.62
2023-02-16T02:24:08.551Z,7.55
2023-02-16T02:27:07.281Z,7.39
2023-02-16T02:30:06.329Z,7.34
2023-02-16T02:32:44.686Z,7.38
2023-02-16T02:35:29.812Z,7.40
2023-02-16T02:38:14.221Z,7.39
2023-02-16T02:41:04.611Z,7.33
2023-02-16T02:43:43.226Z,7.30
2023-02-16T02:46:09.815Z,7.25
2023-02-16T02:48:36.579Z,7.13
2023-02-16T02:51:30.792Z,7.08
2023-02-16T02:54:35.071Z,7.03
2023-02-16T02:57:45.724Z,7.03
2023-02-16T03:00:40.736Z,6.94
2023-02-16T03:03:22.766Z,6.86
2023-02-16T03:06:17.657Z,6.86
2023-02-16T03:08:48.212Z,6.88
2023-02-16T03:11:41.428Z,6.87
2023-02-16T03:14:16.549Z,6.90
2023-02-16T03:17:16.437Z,6.97
2023-02-16T03:20:04.346Z,7.03
2023-02-16T03:22:51.119Z,7.03
2023-02-16T03:25:36.908Z,7.02
2023-02-16T03:28:27.360Z,6.99
2023-02-16T03:30:55.763Z,6.97
2023-02-16T03:33:23.850Z,6.90
2023-02-16T03:35:51.295Z,6.86
2023-02-16T03:38:18.377Z,6.87
2023-02-16T03:40:47.992Z,6.82
2023-02-16T03:43:14.622Z,6.67
2023-02-16T03:45:43.314Z,6.69
2023-02-16T03:48:10.287Z,6.63
2023-02-16T03:50:37.291Z,6.49
2023-02-16T03:53:07.193Z,6.43
2023-02-16T03:55:34.001Z,6.42
2023-02-16T03:58:01.513Z,6.45
2023-02-16T04:00:28.613Z,6.40
2023-02-16T04:02:55.314Z,6.39
2023-02-16T04:05:21.975Z,6.40
2023-02-16T04:07:48.623Z,6.43
2023-02-16T04:10:15.679Z,6.45
2023-02-16T04:12:42.299Z,6.48
2023-02-16T04:15:15.249Z,6.46
2023-02-16T04:17:41.976Z,6.46
2023-02-16T04:20:11.435Z,6.47
2023-02-16T04:22:38.243Z,6.47
2023-02-16T04:25:05.619Z,6.43
2023-02-16T04:27:32.302Z,6.42
2023-02-16T04:29:59.012Z,6.34
2023-02-16T04:32:25.698Z,6.38
2023-02-16T04:34:52.375Z,6.42
2023-02-16T04:37:19.075Z,6.42
2023-02-16T04:39:45.723Z,6.35
2023-02-16T04:42:12.487Z,6.34
2023-02-16T04:44:39.134Z,6.53
2023-02-16T04:47:05.782Z,6.46
2023-02-16T04:49:32.445Z,6.41
2023-02-16T04:52:00.887Z,6.27
2023-02-16T04:54:27.905Z,6.20
2023-02-16T04:56:54.681Z,6.18
2023-02-16T04:59:21.733Z,6.24
2023-02-16T05:01:49.089Z,6.37
2023-02-16T05:04:16.511Z,6.46
2023-02-16T05:06:43.452Z,6.39
2023-02-16T05:09:10.490Z,6.37
2023-02-16T05:11:55.778Z,6.33
2023-02-16T05:14:45.444Z,6.32
2023-02-16T05:17:24.017Z,6.31
2023-02-16T05:19:53.481Z,6.26
2023-02-16T05:22:20.795Z,6.26
2023-02-16T05:24:48.169Z,6.21
2023-02-16T05:27:18.858Z,6.24
2023-02-16T05:29:46.104Z,6.19
2023-02-16T05:32:13.216Z,6.15
2023-02-16T05:34:40.113Z,6.12
2023-02-16T05:37:06.969Z,6.14
2023-02-16T05:39:34.606Z,6.15
2023-02-16T05:42:01.349Z,6.16
2023-02-16T05:44:28.222Z,6.19
2023-02-16T05:46:54.826Z,6.15
2023-02-16T05:49:21.525Z,6.08
2023-02-16T05:51:48.191Z,5.99
2023-02-16T05:54:18.050Z,6.23
2023-02-16T05:56:49.406Z,6.15
2023-02-16T05:59:16.881Z,6.11
2023-02-16T06:01:44.510Z,6.12
2023-02-16T06:04:14.624Z,6.09
2023-02-16T06:06:41.529Z,6.10
2023-02-16T06:09:09.134Z,6.09
2023-02-16T06:11:36.625Z,6.15
2023-02-16T06:14:07.457Z,6.16
2023-02-16T06:16:35.334Z,6.15
2023-02-16T06:19:02.172Z,6.15
2023-02-16T06:21:29.067Z,6.15
2023-02-16T06:23:55.753Z,6.05
2023-02-16T06:26:23.045Z,6.10
2023-02-16T06:28:49.877Z,6.07
2023-02-16T06:31:16.656Z,6.11
2023-02-16T06:33:43.580Z,6.08
2023-02-16T06:36:10.810Z,6.05
2023-02-16T06:38:37.702Z,6.00
2023-02-16T06:41:04.839Z,5.89
2023-02-16T06:43:31.902Z,5.89
2023-02-16T06:45:58.796Z,5.93
2023-02-16T06:48:25.481Z,5.97
2023-02-16T06:50:52.456Z,5.98
2023-02-16T06:53:20.452Z,5.96
2023-02-16T06:55:49.589Z,5.89
2023-02-16T06:58:16.188Z,5.85
2023-02-16T07:00:42.822Z,5.79
2023-02-16T07:03:09.602Z,5.83
2023-02-16T07:05:36.325Z,5.86
2023-02-16T07:08:03.088Z,5.93
2023-02-16T07:10:43.695Z,6.01
2023-02-16T07:13:15.973Z,6.09
2023-02-16T07:15:42.776Z,6.03
2023-02-16T07:18:09.515Z,5.90
2023-02-16T07:20:36.306Z,5.99
2023-02-16T07:23:02.934Z,6.06
2023-02-16T07:25:29.696Z,6.19
2023-02-16T07:27:56.358Z,6.39
2023-02-16T07:30:23.050Z,6.59
2023-02-16T07:32:49.759Z,6.78
2023-02-16T07:35:16.345Z,7.01
2023-02-16T07:37:42.973Z,7.16
2023-02-16T07:40:10.916Z,7.49
2023-02-16T07:42:37.677Z,8.01
2023-02-16T07:45:04.888Z,8.59
2023-02-16T07:47:31.664Z,9.17
2023-02-16T07:49:58.262Z,9.85
2023-02-16T07:52:30.803Z,10.34
2023-02-16T07:54:58.975Z,10.88
2023-02-16T07:57:26.828Z,11.65
2023-02-16T07:59:54.502Z,12.19
2023-02-16T08:02:22.434Z,12.40
2023-02-16T08:04:49.582Z,12.99
2023-02-16T08:07:17.294Z,13.17
2023-02-16T08:09:44.454Z,13.27
2023-02-16T08:12:15.783Z,13.51
2023-02-16T08:14:43.408Z,14.04
2023-02-16T08:17:10.569Z,14.01
2023-02-16T08:19:37.325Z,14.28
2023-02-16T08:22:05.283Z,14.48
2023-02-16T08:24:33.918Z,14.88
2023-02-16T08:27:03.540Z,15.08
2023-02-16T08:29:31.084Z,14.98
2023-02-16T08:31:57.904Z,14.51
2023-02-16T08:34:25.208Z,14.47
2023-02-16T08:36:56.962Z,14.81
2023-02-16T08:39:26.827Z,15.73
2023-02-16T08:41:54.485Z,16.54
2023-02-16T08:44:23.609Z,16.80
2023-02-16T08:46:52.180Z,17.77
2023-02-16T08:49:21.889Z,18.28
2023-02-16T08:51:57.519Z,18.87
2023-02-16T08:54:30.364Z,19.45
2023-02-16T08:56:59.019Z,19.99
2023-02-16T08:59:28.406Z,20.74
2023-02-16T09:01:55.540Z,21.17
2023-02-16T09:04:22.553Z,21.58
2023-02-16T09:06:49.193Z,21.76
2023-02-16T09:09:16.668Z,21.84
2023-02-16T09:11:43.362Z,21.98
2023-02-16T09:14:10.497Z,21.91
2023-02-16T09:16:39.773Z,21.51
2023-02-16T09:19:07.205Z,21.36
2023-02-16T09:21:34.287Z,21.20
2023-02-16T09:24:03.439Z,22.67
2023-02-16T09:26:38.914Z,23.78
2023-02-16T09:29:07.026Z,25.35
2023-02-16T09:31:37.246Z,26.37
2023-02-16T09:34:07.853Z,26.36
2023-02-16T09:36:35.069Z,26.48
2023-02-16T09:39:02.322Z,25.13
2023-02-16T09:41:57.696Z,23.61
2023-02-16T09:44:33.346Z,22.32
2023-02-16T09:47:04.857Z,21.16
2023-02-16T09:49:36.000Z,20.57
2023-02-16T09:52:09.057Z,20.12
2023-02-16T09:54:51.583Z,19.75
2023-02-16T09:57:59.117Z,19.32
2023-02-16T10:00:35.861Z,18.83
2023-02-16T10:03:28.875Z,18.56
2023-02-16T10:06:19.019Z,18.15
2023-02-16T10:08:54.415Z,17.61
2023-02-16T10:11:46.417Z,16.69
2023-02-16T10:14:58.478Z,16.35
2023-02-16T10:17:34.456Z,16.00
2023-02-16T10:20:16.503Z,16.31
2023-02-16T10:22:52.586Z,16.44
2023-02-16T10:25:34.301Z,16.38
2023-02-16T10:28:16.392Z,16.34
2023-02-16T10:30:50.556Z,16.21
2023-02-16T10:33:33.877Z,16.08
2023-02-16T10:36:07.113Z,15.58
2023-02-16T10:38:51.366Z,15.76
2023-02-16T10:41:31.488Z,15.84
2023-02-16T10:44:11.292Z,16.26
2023-02-16T10:46:56.773Z,17.05
2023-02-16T10:49:25.743Z,17.31
2023-02-16T10:51:55.344Z,17.41
2023-02-16T10:54:27.253Z,17.46
2023-02-16T10:56:59.592Z,17.41
2023-02-16T10:59:42.473Z,17.36
2023-02-16T11:02:30.846Z,17.64
2023-02-16T11:04:58.852Z,17.95
2023-02-16T11:07:28.269Z,17.65
2023-02-16T11:09:57.191Z,17.48
2023-02-16T11:12:38.355Z,17.57
2023-02-16T11:15:08.358Z,17.45
2023-02-16T11:17:53.056Z,17.97
2023-02-16T11:20:31.822Z,19.23
2023-02-16T11:23:23.078Z,20.22
2023-02-16T11:26:13.010Z,21.48
2023-02-16T11:28:42.022Z,20.39
2023-02-16T11:31:32.144Z,19.49
2023-02-16T11:34:06.414Z,18.82
2023-02-16T11:36:40.408Z,19.24
2023-02-16T11:39:24.081Z,20.55
2023-02-16T11:41:56.157Z,22.61
2023-02-16T11:44:27.853Z,23.93
2023-02-16T11:46:57.174Z,25.47
2023-02-16T11:49:37.315Z,25.01
2023-02-16T11:52:23.134Z,25.82
2023-02-16T11:54:51.852Z,25.49
2023-02-16T11:57:29.633Z,23.79
2023-02-16T11:59:57.480Z,24.12
2023-02-16T12:02:46.382Z,23.31
2023-02-16T12:05:35.579Z,21.96
2023-02-16T12:08:27.784Z,21.72
2023-02-16T12:11:12.401Z,20.53
2023-02-16T12:13:51.052Z,21.34
2023-02-16T12:16:36.992Z,21.48
2023-02-16T12:19:22.050Z,21.84
2023-02-16T12:22:01.101Z,21.53
2023-02-16T12:24:49.388Z,21.79
2023-02-16T12:27:21.995Z,22.02
2023-02-16T12:30:13.103Z,20.60
2023-02-16T12:32:50.307Z,20.08
2023-02-16T12:35:22.702Z,19.99
2023-02-16T12:38:13.435Z,20.28
2023-02-16T12:41:09.327Z,19.53
2023-02-16T12:43:44.811Z,18.97
2023-02-16T12:46:17.548Z,18.95
2023-02-16T12:48:47.917Z,19.08
2023-02-16T12:51:22.904Z,19.08
2023-02-16T12:54:01.563Z,18.90
2023-02-16T12:56:38.851Z,17.92
2023-02-16T12:59:26.018Z,18.41
2023-02-16T13:01:56.223Z,17.98
2023-02-16T13:04:48.818Z,17.61
2023-02-16T13:07:38.729Z,17.39
2023-02-16T13:10:22.645Z,17.15
2023-02-16T13:13:04.641Z,17.21
2023-02-16T13:15:38.907Z,16.96
2023-02-16T13:18:18.623Z,17.27
2023-02-16T13:21:08.133Z,17.52
2023-02-16T13:24:11.306Z,17.51
2023-02-16T13:26:55.694Z,17.46
2023-02-16T13:29:31.362Z,17.35
2023-02-16T13:32:37.739Z,17.15
2023-02-16T13:35:20.022Z,16.85
2023-02-16T13:38:05.120Z,16.83
2023-02-16T13:40:59.731Z,16.84
2023-02-16T13:43:52.080Z,16.55
2023-02-16T13:46:28.985Z,16.77
2023-02-16T13:48:56.113Z,16.66
2023-02-16T13:51:26.281Z,16.83
2023-02-16T13:53:59.147Z,17.14
2023-02-16T13:56:28.652Z,16.99
2023-02-16T13:58:58.060Z,17.03
2023-02-16T14:01:44.128Z,16.85
2023-02-16T14:04:27.567Z,16.65
2023-02-16T14:07:03.403Z,16.38
2023-02-16T14:09:37.089Z,16.43
2023-02-16T14:12:16.804Z,16.36
2023-02-16T14:14:43.417Z,15.75
2023-02-16T14:17:19.231Z,15.68
2023-02-16T14:19:55.186Z,15.82
2023-02-16T14:22:50.791Z,15.71
2023-02-16T14:25:23.397Z,15.48
2023-02-16T14:27:50.575Z,15.73
2023-02-16T14:30:51.760Z,15.62
2023-02-16T14:33:38.852Z,15.73
2023-02-16T14:36:14.016Z,16.10
2023-02-16T14:38:40.669Z,16.22
2023-02-16T14:41:23.850Z,16.21
2023-02-16T14:43:56.450Z,16.06
2023-02-16T14:46:58.811Z,16.10
2023-02-16T14:49:33.575Z,15.95
2023-02-16T14:52:09.027Z,15.99
2023-02-16T14:55:13.644Z,16.06
2023-02-16T14:57:48.484Z,16.21
2023-02-16T15:00:24.748Z,16.02
2023-02-16T15:02:58.985Z,16.05
2023-02-16T15:05:29.916Z,15.96
2023-02-16T15:08:24.012Z,15.97
2023-02-16T15:10:56.209Z,15.84
2023-02-16T15:13:30.842Z,15.95
2023-02-16T15:16:00.319Z,16.08
2023-02-16T15:18:40.297Z,15.94
2023-02-16T15:21:17.037Z,16.03
2023-02-16T15:23:52.544Z,15.87
2023-02-16T15:26:26.314Z,15.93
2023-02-16T15:29:16.535Z,15.95
2023-02-16T15:31:44.071Z,15.74
2023-02-16T15:34:26.324Z,15.85
2023-02-16T15:36:53.008Z,15.88
2023-02-16T15:39:37.902Z,15.89
2023-02-16T15:42:18.836Z,15.86
2023-02-16T15:44:48.020Z,15.86
2023-02-16T15:47:22.404Z,15.76
2023-02-16T15:49:49.892Z,15.69
2023-02-16T15:52:27.490Z,15.72
2023-02-16T15:54:55.199Z,15.75
2023-02-16T15:57:30.990Z,15.77
2023-02-16T16:00:00.567Z,15.81
2023-02-16T16:02:38.318Z,15.70
2023-02-16T16:05:09.664Z,15.74
2023-02-16T16:07:40.047Z,15.75
2023-02-16T16:10:25.019Z,15.74
2023-02-16T16:12:56.472Z,15.73
2023-02-16T16:15:26.264Z,15.67
2023-02-16T16:17:54.904Z,15.66
2023-02-16T16:20:27.705Z,15.58
2023-02-16T16:23:14.073Z,15.62
2023-02-16T16:25:46.505Z,15.61
2023-02-16T16:28:36.563Z,15.58
2023-02-16T16:31:11.942Z,15.57
2023-02-16T16:33:54.961Z,15.57
2023-02-16T16:36:32.123Z,15.54
2023-02-16T16:39:17.072Z,15.51
2023-02-16T16:42:16.082Z,15.52
2023-02-16T16:44:56.468Z,15.45
2023-02-16T16:47:29.396Z,15.22
2023-02-16T16:49:58.225Z,15.27
2023-02-16T16:52:32.235Z,15.21
2023-02-16T16:54:59.062Z,15.24
2023-02-16T16:57:25.961Z,15.24
2023-02-16T16:59:52.623Z,15.27
2023-02-16T17:02:19.381Z,15.25
2023-02-16T17:04:45.983Z,15.20
2023-02-16T17:07:12.715Z,15.19
2023-02-16T17:09:39.368Z,15.12
2023-02-16T17:12:06.416Z,15.11
2023-02-16T17:14:34.048Z,15.04
2023-02-16T17:17:00.798Z,15.03
2023-02-16T17:19:29.340Z,14.98
2023-02-16T17:21:56.089Z,14.98
2023-02-16T17:24:23.199Z,14.91
2023-02-16T17:26:50.215Z,14.87
2023-02-16T17:29:16.977Z,14.86
2023-02-16T17:31:43.779Z,14.76
2023-02-16T17:34:10.496Z,14.77
2023-02-16T17:36:37.384Z,14.60
2023-02-16T17:39:04.384Z,14.60
2023-02-16T17:41:31.037Z,14.56
2023-02-16T17:43:57.735Z,14.55
2023-02-16T17:46:25.475Z,14.54
2023-02-16T17:48:55.112Z,14.40
2023-02-16T17:51:24.198Z,14.36
2023-02-16T17:53:51.661Z,14.34
2023-02-16T17:56:21.563Z,14.31
2023-02-16T17:58:48.910Z,14.26
2023-02-16T18:01:16.649Z,14.18
2023-02-16T18:03:43.412Z,14.15
2023-02-16T18:06:14.797Z,14.15
2023-02-16T18:08:41.954Z,14.10
2023-02-16T18:11:08.649Z,14.05
2023-02-16T18:13:35.387Z,13.92
2023-02-16T18:16:03.882Z,13.86
2023-02-16T18:18:32.787Z,13.85
2023-02-16T18:20:59.543Z,13.75
2023-02-16T18:23:26.261Z,13.70
2023-02-16T18:25:53.131Z,13.67
2023-02-16T18:28:25.391Z,13.68
2023-02-16T18:30:52.037Z,13.69
2023-02-16T18:33:21.120Z,13.63
2023-02-16T18:35:52.403Z,13.64
2023-02-16T18:38:21.837Z,13.69
2023-02-16T18:40:49.475Z,13.67
2023-02-16T18:43:16.125Z,13.64
2023-02-16T18:45:42.834Z,13.66
2023-02-16T18:48:09.597Z,13.66
2023-02-16T18:50:36.244Z,13.55
2023-02-16T18:53:03.036Z,13.56
2023-02-16T18:55:32.965Z,13.55
2023-02-16T18:58:01.405Z,13.53
2023-02-16T19:00:28.734Z,13.53
2023-02-16T19:02:56.881Z,13.50
2023-02-16T19:05:24.254Z,13.46
2023-02-16T19:07:51.315Z,13.45
2023-02-16T19:10:18.863Z,13.33
2023-02-16T19:12:45.557Z,13.35
2023-02-16T19:15:12.173Z,13.34
2023-02-16T19:17:38.859Z,13.33
2023-02-16T19:20:09.038Z,13.34
2023-02-16T19:22:37.200Z,13.30
2023-02-16T19:25:05.779Z,13.25
2023-02-16T19:27:32.800Z,13.24
2023-02-16T19:30:02.447Z,13.19
2023-02-16T19:32:29.316Z,13.15
2023-02-16T19:34:56.020Z,13.12
2023-02-16T19:37:22.760Z,13.18
2023-02-16T19:39:49.434Z,13.19
2023-02-16T19:42:16.154Z,13.20
2023-02-16T19:44:42.838Z,13.21
2023-02-16T19:47:09.468Z,13.16
2023-02-16T19:49:36.636Z,13.20
2023-02-16T19:52:04.439Z,13.23
2023-02-16T19:54:34.782Z,13.15
2023-02-16T19:57:03.068Z,13.20
2023-02-16T19:59:31.679Z,13.22
2023-02-16T20:01:59.041Z,13.25
2023-02-16T20:04:25.871Z,13.26
2023-02-16T20:06:54.373Z,13.29
2023-02-16T20:09:22.038Z,13.24
2023-02-16T20:11:48.897Z,13.15
2023-02-16T20:14:16.125Z,13.06
2023-02-16T20:16:43.547Z,13.05
2023-02-16T20:19:10.238Z,13.01
2023-02-16T20:21:37.322Z,13.01
2023-02-16T20:24:05.641Z,13.06
2023-02-16T20:26:41.339Z,13.02
2023-02-16T20:29:09.465Z,13.04
2023-02-16T20:31:38.455Z,13.10
2023-02-16T20:34:06.137Z,13.07
2023-02-16T20:36:32.939Z,13.07
2023-02-16T20:38:59.560Z,13.15
2023-02-16T20:41:26.391Z,13.20
2023-02-16T20:43:53.379Z,13.15
2023-02-16T20:46:20.573Z,13.14
2023-02-16T20:48:49.916Z,13.13
2023-02-16T20:51:17.189Z,13.05
2023-02-16T20:53:43.922Z,13.18
2023-02-16T20:56:21.624Z,13.32
2023-02-16T20:58:49.918Z,13.52
2023-02-16T21:01:21.996Z,13.41
2023-02-16T21:03:50.415Z,13.66
2023-02-16T21:06:17.650Z,13.39
2023-02-16T21:08:44.399Z,13.47
2023-02-16T21:11:11.516Z,13.51
2023-02-16T21:13:39.079Z,13.46
2023-02-16T21:16:07.207Z,13.60
2023-02-16T21:18:38.191Z,13.49
2023-02-16T21:21:06.646Z,13.69
2023-02-16T21:23:33.367Z,13.78
2023-02-16T21:26:02.072Z,13.71
2023-02-16T21:28:28.980Z,13.76
2023-02-16T21:30:56.049Z,13.88
2023-02-16T21:33:23.075Z,13.73
2023-02-16T21:35:49.792Z,13.55
2023-02-16T21:38:17.692Z,13.60
2023-02-16T21:41:02.983Z,13.57
2023-02-16T21:43:29.644Z,13.85
2023-02-16T21:46:01.109Z,13.72
2023-02-16T21:48:47.345Z,13.94
2023-02-16T21:51:16.577Z,14.00
2023-02-16T21:53:43.329Z,13.81
2023-02-16T21:56:30.951Z,13.62
2023-02-16T21:58:58.080Z,13.89
2023-02-16T22:01:28.518Z,13.36
2023-02-16T22:04:04.270Z,13.51
2023-02-16T22:06:34.188Z,13.68
2023-02-16T22:09:05.882Z,13.59
2023-02-16T22:11:32.767Z,13.69
2023-02-16T22:14:00.415Z,13.72
2023-02-16T22:16:29.401Z,13.63
2023-02-16T22:19:02.936Z,13.36
2023-02-16T22:21:30.740Z,13.60
2023-02-16T22:23:57.953Z,13.44
2023-02-16T22:26:27.723Z,13.50
2023-02-16T22:28:55.164Z,13.46
2023-02-16T22:31:24.199Z,13.49
2023-02-16T22:33:58.623Z,13.40
2023-02-16T22:36:25.998Z,13.28
2023-02-16T22:38:53.636Z,13.59
2023-02-16T22:41:21.292Z,13.60
2023-02-16T22:43:48.182Z,13.52
2023-02-16T22:46:17.075Z,13.56
2023-02-16T22:48:44.306Z,13.55
2023-02-16T22:51:13.610Z,13.47
2023-02-16T22:53:40.672Z,13.53
2023-02-16T22:56:08.934Z,13.80
2023-02-16T22:58:36.372Z,13.66
2023-02-16T23:01:03.990Z,13.68
2023-02-16T23:03:31.161Z,13.87
2023-02-16T23:05:57.832Z,13.73
2023-02-16T23:08:24.464Z,13.62
2023-02-16T23:11:00.512Z,13.82
2023-02-16T23:13:33.181Z,13.93
2023-02-16T23:16:06.126Z,13.88
2023-02-16T23:18:33.989Z,13.90
2023-02-16T23:21:08.381Z,13.84
2023-02-16T23:23:35.547Z,13.74
2023-02-16T23:26:02.906Z,13.89
2023-02-16T23:28:29.595Z,13.69
2023-02-16T23:30:57.291Z,13.90
2023-02-16T23:33:24.218Z,14.00
2023-02-16T23:35:51.144Z,13.86
2023-02-16T23:38:18.256Z,13.80
2023-02-16T23:40:44.968Z,13.84
2023-02-16T23:43:11.641Z,13.92
2023-02-16T23:45:38.768Z,13.79
2023-02-16T23:48:05.562Z,13.70
2023-02-16T23:50:32.157Z,13.71
2023-02-16T23:52:58.836Z,13.81
2023-02-16T23:55:25.511Z,13.79
2023-02-16T23:57:52.182Z,14.05
